Time;durP1;ratioP1;P1;durP2;ratioP2;P2;SDS_P1;SDS_P2;PMS_P1;PMS_P2;Temp;Humidity;BMP_temperature;BMP_pressure;BME280_temperature;BME280_humidity;BME280_pressure;Samples;Min_cycle;Max_cycle;Signal;HPM_P1;HPM_P2
2021/06/19 00:00:12;;;;;;;12.90;11.40;;;26.40;60.90;;;;;;4994582;28;20492;-51
2021/06/19 00:02:39;;;;;;;11.00;10.00;;;26.40;61.30;;;;;;4993363;28;20474;-49
2021/06/19 00:05:07;;;;;;;12.90;10.47;;;26.30;61.40;;;;;;4994564;28;20801;-55
2021/06/19 00:07:35;;;;;;;14.47;10.97;;;26.30;61.60;;;;;;4991999;28;20473;-49
2021/06/19 00:10:02;;;;;;;10.57;9.67;;;26.20;61.70;;;;;;4994469;28;20464;-50
2021/06/19 00:12:28;;;;;;;11.83;10.63;;;26.20;61.80;;;;;;4994461;28;20442;-50
2021/06/19 00:14:55;;;;;;;10.37;9.50;;;26.20;61.90;;;;;;4994140;28;20866;-49
2021/06/19 00:17:22;;;;;;;11.07;10.07;;;26.20;62.10;;;;;;4994273;28;20532;-53
2021/06/19 00:19:48;;;;;;;11.33;10.27;;;26.20;62.20;;;;;;4993983;28;20486;-53
2021/06/19 00:22:15;;;;;;;13.57;12.23;;;26.10;62.20;;;;;;4993841;28;20438;-51
2021/06/19 00:24:43;;;;;;;11.90;10.70;;;26.10;62.40;;;;;;4994203;28;20442;-55
2021/06/19 00:27:10;;;;;;;12.23;10.63;;;26.10;62.50;;;;;;4989222;28;20469;-53
2021/06/19 00:29:36;;;;;;;10.57;9.73;;;26.10;62.90;;;;;;4991108;28;20450;-55
2021/06/19 00:32:04;;;;;;;11.60;10.60;;;26.00;63.00;;;;;;4994543;28;20469;-53
2021/06/19 00:34:31;;;;;;;11.30;10.30;;;26.00;63.10;;;;;;4994697;28;20532;-55
2021/06/19 00:36:57;;;;;;;11.80;10.60;;;26.00;63.20;;;;;;4994989;28;20450;-55
2021/06/19 00:39:24;;;;;;;11.43;10.30;;;26.00;63.50;;;;;;4994516;28;20450;-50
2021/06/19 00:41:52;;;;;;;11.80;10.73;;;25.90;63.40;;;;;;4994616;28;20516;-49
2021/06/19 00:44:20;;;;;;;11.40;10.13;;;25.90;63.70;;;;;;4994420;28;20516;-55
2021/06/19 00:46:50;;;;;;;19.80;11.83;;;25.90;63.80;;;;;;4994451;28;20454;-50
2021/06/19 00:49:17;;;;;;;11.73;10.63;;;25.90;64.20;;;;;;4995259;28;20449;-53
2021/06/19 00:51:43;;;;;;;11.40;10.30;;;25.80;64.20;;;;;;4994497;28;20465;-53
2021/06/19 00:54:10;;;;;;;11.90;10.87;;;25.80;64.40;;;;;;4994602;28;20483;-52
2021/06/19 00:56:37;;;;;;;11.87;10.37;;;25.80;64.50;;;;;;4994264;28;20450;-50
2021/06/19 00:59:07;;;;;;;12.00;10.93;;;25.80;64.80;;;;;;4994601;28;20486;-52
2021/06/19 01:01:34;;;;;;;11.47;10.37;;;25.70;65.00;;;;;;4994094;28;21088;-55
2021/06/19 01:04:02;;;;;;;11.17;10.17;;;25.70;65.10;;;;;;4993983;28;20486;-51
2021/06/19 01:06:30;;;;;;;11.30;10.30;;;25.70;65.20;;;;;;4994200;28;20450;-52
2021/06/19 01:08:56;;;;;;;12.23;11.20;;;25.70;65.30;;;;;;4994118;28;20453;-49
2021/06/19 01:11:24;;;;;;;11.40;10.40;;;25.70;65.70;;;;;;4994421;28;20449;-49
2021/06/19 01:13:52;;;;;;;11.43;10.27;;;25.60;65.70;;;;;;4994041;28;21003;-52
2021/06/19 01:16:21;;;;;;;11.60;10.60;;;25.60;65.80;;;;;;4994006;28;20969;-52
2021/06/19 01:18:48;;;;;;;11.97;10.40;;;25.60;66.00;;;;;;4994112;28;20866;-54
2021/06/19 01:21:16;;;;;;;11.43;10.10;;;25.60;66.10;;;;;;4993960;28;20474;-55
2021/06/19 01:23:43;;;;;;;11.20;10.20;;;25.60;66.40;;;;;;4993828;28;20473;-55
2021/06/19 01:26:13;;;;;;;11.57;10.57;;;25.50;66.40;;;;;;4993701;28;20468;-50
2021/06/19 01:28:41;;;;;;;12.27;11.17;;;25.50;66.50;;;;;;4994042;28;20426;-53
2021/06/19 01:31:07;;;;;;;11.27;10.27;;;25.50;66.80;;;;;;4993827;28;20516;-55
2021/06/19 01:33:35;;;;;;;13.10;11.73;;;25.50;67.00;;;;;;4993987;28;20875;-52
2021/06/19 01:36:02;;;;;;;10.80;9.77;;;25.40;67.30;;;;;;4994060;28;20457;-51
2021/06/19 01:38:28;;;;;;;15.37;11.40;;;25.40;67.40;;;;;;4993762;28;20546;-51
2021/06/19 01:40:55;;;;;;;11.57;10.47;;;25.40;67.70;;;;;;4994059;28;20455;-52
2021/06/19 01:43:23;;;;;;;12.00;10.80;;;25.40;67.90;;;;;;4993950;28;20462;-53
2021/06/19 01:45:50;;;;;;;12.50;11.20;;;25.30;68.80;;;;;;4993909;28;20453;-50
2021/06/19 01:48:17;;;;;;;12.23;11.13;;;25.30;68.40;;;;;;4993881;28;20504;-53
2021/06/19 01:50:43;;;;;;;12.50;11.40;;;25.30;68.70;;;;;;4993752;28;20457;-46
2021/06/19 01:53:10;;;;;;;14.80;11.70;;;25.30;68.90;;;;;;4993956;28;20454;-48
2021/06/19 01:55:37;;;;;;;11.00;9.90;;;25.20;69.10;;;;;;4992041;28;20508;-51
2021/06/19 01:58:04;;;;;;;12.20;11.00;;;25.20;69.50;;;;;;4976912;28;20537;-54
2021/06/19 02:00:35;;;;;;;12.13;10.50;;;25.20;69.80;;;;;;4974464;28;20466;-51
2021/06/19 02:05:28;;;;;;;12.33;11.13;;;25.20;70.20;;;;;;5028483;23;21058;-54
2021/06/19 02:07:57;;;;;;;12.27;10.90;;;25.10;70.50;;;;;;4974181;28;20912;-54
2021/06/19 02:10:25;;;;;;;10.97;9.97;;;25.10;70.90;;;;;;4974207;28;20463;-55
2021/06/19 02:12:52;;;;;;;11.83;10.73;;;25.10;71.10;;;;;;4974440;28;20513;-52
2021/06/19 02:15:19;;;;;;;11.73;10.83;;;25.10;71.40;;;;;;4974450;28;20451;-54
2021/06/19 02:17:47;;;;;;;11.00;10.10;;;25.10;71.60;;;;;;4974231;28;20771;-54
2021/06/19 02:20:16;;;;;;;11.57;10.07;;;25.10;71.90;;;;;;4974244;28;20509;-53
2021/06/19 02:22:43;;;;;;;11.67;10.57;;;25.00;72.20;;;;;;4974298;28;20447;-54
2021/06/19 02:25:13;;;;;;;11.47;10.30;;;25.00;72.50;;;;;;4975457;28;20520;-49
2021/06/19 02:27:46;;;;;;;11.70;9.77;;;24.90;72.80;;;;;;4977869;28;20446;-51
2021/06/19 02:30:14;;;;;;;10.90;10.00;;;24.90;73.30;;;;;;4977808;28;20447;-49
2021/06/19 02:32:41;;;;;;;12.33;11.13;;;24.90;73.80;;;;;;4977396;28;20492;-50
2021/06/19 02:35:11;;;;;;;11.40;10.40;;;24.90;74.30;;;;;;4970908;28;20813;-48
2021/06/19 02:37:37;;;;;;;12.80;11.60;;;24.90;74.70;;;;;;4963916;28;20443;-53
2021/06/19 02:40:06;;;;;;;12.17;11.10;;;24.90;75.20;;;;;;4957841;29;20456;-48
2021/06/19 02:42:35;;;;;;;11.40;10.47;;;24.90;75.80;;;;;;4958357;28;20530;-53
2021/06/19 02:45:10;;;;;;;11.93;10.57;;;24.80;76.40;;;;;;4957897;29;20498;-51
2021/06/19 02:47:36;;;;;;;12.13;11.13;;;24.80;77.10;;;;;;4957835;29;20487;-49
2021/06/19 02:50:04;;;;;;;10.93;9.87;;;24.70;77.60;;;;;;4958105;29;20527;-50
2021/06/19 02:52:31;;;;;;;11.97;10.70;;;24.70;78.30;;;;;;4957797;29;20518;-53
2021/06/19 02:54:58;;;;;;;12.77;10.87;;;24.70;79.00;;;;;;4957985;29;20460;-48
2021/06/19 02:57:25;;;;;;;12.90;11.77;;;24.70;79.90;;;;;;4957934;29;20463;-49
2021/06/19 02:59:52;;;;;;;12.13;10.93;;;24.70;80.70;;;;;;4957750;29;21073;-51
2021/06/19 03:02:18;;;;;;;11.00;10.20;;;24.60;81.50;;;;;;4957521;29;20456;-53
2021/06/19 03:04:45;;;;;;;10.80;9.90;;;24.60;82.30;;;;;;4957752;29;20518;-49
2021/06/19 03:07:12;;;;;;;11.73;10.63;;;24.60;83.20;;;;;;4957608;29;20488;-54
2021/06/19 03:09:39;;;;;;;11.33;10.33;;;24.60;84.30;;;;;;4957552;29;20839;-52
2021/06/19 03:12:07;;;;;;;12.20;11.10;;;24.50;85.30;;;;;;4957630;29;20452;-55
2021/06/19 03:14:34;;;;;;;12.70;11.50;;;24.50;86.80;;;;;;4957282;29;20523;-52
2021/06/19 03:17:01;;;;;;;14.30;10.80;;;24.50;87.90;;;;;;4961913;28;20490;-54
2021/06/19 03:19:28;;;;;;;14.17;11.17;;;24.50;89.00;;;;;;4957547;29;20490;-55
2021/06/19 03:21:58;;;;;;;12.90;11.60;;;24.50;90.00;;;;;;4957430;29;20510;-52
2021/06/19 03:24:25;;;;;;;13.77;12.17;;;24.50;90.50;;;;;;4957772;29;20463;-52
2021/06/19 03:26:53;;;;;;;11.73;10.53;;;24.40;91.00;;;;;;4957263;29;20522;-52
2021/06/19 03:29:20;;;;;;;13.20;11.90;;;24.40;91.50;;;;;;4957156;29;20447;-54
2021/06/19 03:31:46;;;;;;;12.23;11.20;;;24.40;91.80;;;;;;4957415;29;20531;-54
2021/06/19 03:34:13;;;;;;;12.60;11.43;;;24.40;92.20;;;;;;4957071;29;20514;-55
2021/06/19 03:36:40;;;;;;;13.90;11.73;;;24.50;92.50;;;;;;4956139;28;20833;-55
2021/06/19 03:39:06;;;;;;;12.97;11.50;;;24.40;93.20;;;;;;4956818;29;20479;-53
2021/06/19 03:41:33;;;;;;;12.83;11.53;;;24.40;94.00;;;;;;4957115;29;20518;-54
2021/06/19 03:44:01;;;;;;;12.33;11.20;;;24.40;94.20;;;;;;4957182;29;20452;-51
2021/06/19 03:46:27;;;;;;;12.60;11.30;;;24.40;94.60;;;;;;4956782;29;20856;-55
2021/06/19 03:48:54;;;;;;;12.60;10.80;;;24.40;94.80;;;;;;4956553;29;20949;-54
2021/06/19 03:51:21;;;;;;;13.57;12.13;;;24.40;95.40;;;;;;4956627;29;20526;-49
2021/06/19 03:53:47;;;;;;;12.20;11.10;;;24.40;95.30;;;;;;4956723;29;20526;-50
2021/06/19 03:56:14;;;;;;;12.27;11.20;;;24.40;95.80;;;;;;4956561;29;20459;-52
2021/06/19 03:58:40;;;;;;;11.13;10.17;;;24.40;96.10;;;;;;4956429;29;20484;-52
2021/06/19 04:01:09;;;;;;;12.87;11.67;;;24.40;96.40;;;;;;4956557;29;20455;-48
2021/06/19 04:03:35;;;;;;;13.20;11.83;;;24.40;96.80;;;;;;4956405;29;20476;-51
2021/06/19 04:06:02;;;;;;;13.33;12.03;;;24.40;96.80;;;;;;4956455;29;20475;-49
2021/06/19 04:08:29;;;;;;;13.13;11.93;;;24.40;97.10;;;;;;4956170;29;20467;-53
2021/06/19 04:10:55;;;;;;;13.80;12.50;;;24.50;97.20;;;;;;4956430;29;20443;-55
2021/06/19 04:13:22;;;;;;;11.57;10.47;;;24.50;97.30;;;;;;4956507;29;20487;-50
2021/06/19 04:15:49;;;;;;;14.10;12.70;;;24.50;97.50;;;;;;4956350;29;20448;-47
2021/06/19 04:18:17;;;;;;;11.40;10.30;;;24.50;97.80;;;;;;4956411;29;20456;-54
2021/06/19 04:20:43;;;;;;;13.87;11.73;;;24.50;98.00;;;;;;4956167;29;20451;-51
2021/06/19 04:23:11;;;;;;;13.27;12.07;;;24.50;98.30;;;;;;4956368;29;20820;-53
2021/06/19 04:25:37;;;;;;;12.13;11.13;;;24.50;98.20;;;;;;4956080;29;21017;-54
2021/06/19 04:28:04;;;;;;;12.27;11.10;;;24.50;98.40;;;;;;4956092;29;20455;-50
2021/06/19 04:30:32;;;;;;;12.50;11.30;;;24.60;98.60;;;;;;4956185;29;20448;-53
2021/06/19 04:32:59;;;;;;;13.00;11.80;;;24.60;98.90;;;;;;4956235;29;20467;-48
2021/06/19 04:35:28;;;;;;;13.67;12.37;;;24.60;99.00;;;;;;4956408;29;20456;-53
2021/06/19 04:37:55;;;;;;;12.83;11.53;;;24.60;99.00;;;;;;4959534;28;20467;-55
2021/06/19 04:40:28;;;;;;;13.10;11.97;;;24.60;99.50;;;;;;4955893;29;20492;-52
2021/06/19 04:43:01;;;;;;;15.67;11.87;;;24.60;99.50;;;;;;4955883;29;20478;-48
2021/06/19 04:45:28;;;;;;;14.03;12.60;;;24.60;99.30;;;;;;4956072;29;20471;-53
2021/06/19 04:47:55;;;;;;;12.93;11.70;;;24.60;99.60;;;;;;4955669;28;20451;-53
2021/06/19 04:50:22;;;;;;;12.20;11.00;;;24.60;99.40;;;;;;4955693;29;20452;-53
2021/06/19 04:52:50;;;;;;;14.63;11.90;;;24.70;99.10;;;;;;4955829;29;20455;-51
2021/06/19 04:55:19;;;;;;;12.40;11.30;;;24.70;99.40;;;;;;4955888;29;20780;-50
2021/06/19 04:57:50;;;;;;;14.83;13.33;;;24.70;99.30;;;;;;4955620;29;20451;-52
2021/06/19 05:00:17;;;;;;;13.90;12.50;;;24.80;99.30;;;;;;4955844;29;20459;-49
2021/06/19 05:02:43;;;;;;;14.27;12.80;;;24.80;99.50;;;;;;4955694;29;20969;-52
2021/06/19 05:05:10;;;;;;;13.83;11.60;;;24.80;99.50;;;;;;4955695;29;20475;-55
2021/06/19 05:07:37;;;;;;;13.57;12.17;;;24.80;99.40;;;;;;4955239;29;20562;-50
2021/06/19 05:10:07;;;;;;;13.60;12.33;;;24.90;99.40;;;;;;4955534;29;20443;-49
2021/06/19 05:12:35;;;;;;;12.67;11.57;;;24.90;99.30;;;;;;4955488;29;20444;-54
2021/06/19 05:15:02;;;;;;;13.30;12.03;;;25.00;99.40;;;;;;4955336;29;20459;-51
2021/06/19 05:17:29;;;;;;;14.23;12.93;;;25.00;99.30;;;;;;4957794;28;20713;-53
2021/06/19 05:19:57;;;;;;;11.60;10.57;;;25.10;99.10;;;;;;4955544;29;20872;-49
2021/06/19 05:22:24;;;;;;;13.60;12.23;;;25.10;98.90;;;;;;4955378;29;20448;-48
2021/06/19 05:24:51;;;;;;;12.53;11.43;;;25.20;99.20;;;;;;4955517;29;20503;-49
2021/06/19 05:27:19;;;;;;;12.50;11.37;;;25.30;98.80;;;;;;4955390;29;20527;-52
2021/06/19 05:29:46;;;;;;;12.90;11.70;;;25.30;99.10;;;;;;4955231;29;20451;-54
2021/06/19 05:32:12;;;;;;;12.97;11.33;;;25.30;99.20;;;;;;4955433;29;20814;-54
2021/06/19 05:34:41;;;;;;;17.43;12.27;;;25.30;98.80;;;;;;4955563;29;20514;-55
2021/06/19 05:37:08;;;;;;;11.90;10.80;;;25.40;98.60;;;;;;4955088;29;20526;-54
2021/06/19 05:39:35;;;;;;;12.37;11.07;;;25.50;98.50;;;;;;4954984;29;20772;-51
2021/06/19 05:42:02;;;;;;;12.43;11.37;;;25.50;98.50;;;;;;4955354;29;20455;-50
2021/06/19 05:44:29;;;;;;;13.60;11.57;;;25.50;98.00;;;;;;4954962;29;20479;-51
2021/06/19 05:46:56;;;;;;;14.97;12.60;;;25.50;98.00;;;;;;4954980;29;20487;-53
2021/06/19 05:49:23;;;;;;;15.10;11.90;;;25.70;98.00;;;;;;4955116;29;20518;-49
2021/06/19 05:51:49;;;;;;;12.27;11.17;;;25.80;97.30;;;;;;4955230;29;20448;-55
2021/06/19 05:54:16;;;;;;;12.80;11.50;;;25.80;97.60;;;;;;4955345;29;20459;-51
2021/06/19 05:56:43;;;;;;;13.00;11.80;;;25.80;97.10;;;;;;4955402;29;20455;-48
2021/06/19 05:59:09;;;;;;;13.00;12.00;;;25.90;96.80;;;;;;4955033;28;20483;-50
2021/06/19 06:01:37;;;;;;;12.97;11.77;;;26.00;97.00;;;;;;4958691;29;20467;-49
2021/06/19 06:04:04;;;;;;;12.80;11.60;;;26.10;97.30;;;;;;4958795;29;20518;-55
2021/06/19 06:06:31;;;;;;;13.47;12.17;;;26.10;96.50;;;;;;4958509;29;20966;-55
2021/06/19 06:08:57;;;;;;;11.30;10.20;;;26.20;96.20;;;;;;4958534;29;20447;-53
2021/06/19 06:11:24;;;;;;;12.03;10.83;;;26.20;95.80;;;;;;4958843;29;20499;-55
2021/06/19 06:13:51;;;;;;;12.30;11.00;;;26.30;95.50;;;;;;4958354;29;20447;-50
2021/06/19 06:16:17;;;;;;;10.40;9.50;;;26.40;95.40;;;;;;4958601;29;20468;-53
2021/06/19 06:18:45;;;;;;;11.87;10.60;;;26.50;95.10;;;;;;4958624;29;20495;-56
2021/06/19 06:21:12;;;;;;;11.87;10.67;;;26.60;94.80;;;;;;4958447;29;20452;-52
2021/06/19 06:23:39;;;;;;;12.27;10.97;;;26.60;94.40;;;;;;4958518;29;20514;-54
2021/06/19 06:26:05;;;;;;;15.77;9.60;;;26.70;93.90;;;;;;4959036;29;20424;-47
2021/06/19 06:28:32;;;;;;;12.00;11.00;;;26.80;93.50;;;;;;4958755;29;20459;-47
2021/06/19 06:30:59;;;;;;;10.70;9.70;;;26.90;93.30;;;;;;4958513;29;20914;-47
2021/06/19 06:33:26;;;;;;;11.27;10.37;;;27.00;93.10;;;;;;4958653;29;20452;-52
2021/06/19 06:35:56;;;;;;;11.23;10.37;;;27.00;92.70;;;;;;4995094;28;20489;-53
2021/06/19 06:38:23;;;;;;;11.27;10.27;;;27.10;92.60;;;;;;5001040;28;20467;-53
2021/06/19 06:40:50;;;;;;;12.43;10.20;;;27.30;92.20;;;;;;5001368;28;20506;-50
2021/06/19 06:43:19;;;;;;;14.90;10.50;;;27.30;92.00;;;;;;5002112;28;20440;-47
2021/06/19 06:45:46;;;;;;;10.37;9.37;;;27.40;91.90;;;;;;5001217;28;20434;-49
2021/06/19 06:48:13;;;;;;;10.20;9.40;;;27.50;91.90;;;;;;5000930;28;20445;-49
2021/06/19 06:50:42;;;;;;;12.07;11.07;;;27.60;91.40;;;;;;5000498;28;20443;-47
2021/06/19 06:53:11;;;;;;;14.10;11.00;;;27.60;91.50;;;;;;5000367;28;20615;-48
2021/06/19 06:55:40;;;;;;;11.57;10.47;;;27.70;91.10;;;;;;5000320;28;20458;-48
2021/06/19 06:58:07;;;;;;;12.80;9.77;;;27.90;90.70;;;;;;5000630;28;20431;-49
2021/06/19 07:00:33;;;;;;;11.00;9.97;;;28.00;90.30;;;;;;5000325;28;20482;-53
2021/06/19 07:03:02;;;;;;;11.43;10.33;;;28.10;90.20;;;;;;5000331;28;20455;-54
2021/06/19 07:05:29;;;;;;;13.00;11.70;;;28.30;90.20;;;;;;5000205;28;20455;-48
2021/06/19 07:07:56;;;;;;;16.53;12.13;;;28.50;89.50;;;;;;5000428;28;20462;-51
2021/06/19 07:10:24;;;;;;;13.03;11.20;;;28.70;87.90;;;;;;4999969;28;20475;-52
2021/06/19 07:12:51;;;;;;;12.30;11.10;;;28.90;87.40;;;;;;5000251;28;20467;-53
2021/06/19 07:15:19;;;;;;;10.60;9.73;;;29.10;86.20;;;;;;5000199;28;20521;-53
2021/06/19 07:17:47;;;;;;;12.10;10.90;;;29.40;84.20;;;;;;5000354;28;20509;-46
2021/06/19 07:20:16;;;;;;;11.90;10.70;;;30.10;82.60;;;;;;5000138;28;20487;-48
2021/06/19 07:22:43;;;;;;;11.90;10.90;;;31.50;79.00;;;;;;5000299;28;20437;-50
2021/06/19 07:25:11;;;;;;;10.57;9.67;;;32.90;72.80;;;;;;4999947;28;20464;-49
2021/06/19 07:27:40;;;;;;;11.43;10.53;;;34.40;65.30;;;;;;5000594;28;20439;-50
2021/06/19 07:30:10;;;;;;;11.93;9.97;;;35.70;60.00;;;;;;5000835;28;20435;-53
2021/06/19 07:32:38;;;;;;;10.30;9.40;;;37.10;56.00;;;;;;5000271;28;20430;-52
2021/06/19 07:35:08;;;;;;;11.77;10.80;;;38.30;53.10;;;;;;5000047;28;20443;-53
2021/06/19 07:37:36;;;;;;;11.00;10.10;;;39.50;50.20;;;;;;4999712;28;20407;-53
2021/06/19 07:40:04;;;;;;;14.67;13.50;;;40.50;48.00;;;;;;4999795;28;20514;-53
2021/06/19 07:42:31;;;;;;;11.83;10.90;;;41.30;45.60;;;;;;5000053;28;20474;-53
2021/06/19 07:45:01;;;;;;;10.40;9.60;;;42.10;44.20;;;;;;4989907;28;20470;-53
2021/06/19 07:47:29;;;;;;;10.33;9.43;;;42.50;42.50;;;;;;4980605;28;20463;-53
2021/06/19 07:49:59;;;;;;;9.97;9.00;;;43.00;41.80;;;;;;4980041;29;20448;-53
2021/06/19 07:52:27;;;;;;;11.10;10.30;;;43.30;40.00;;;;;;4979868;29;20451;-51
2021/06/19 07:54:57;;;;;;;11.67;10.67;;;43.50;39.70;;;;;;4979839;29;20443;-54
2021/06/19 07:57:26;;;;;;;11.77;10.77;;;43.50;39.80;;;;;;4979933;29;20475;-52
2021/06/19 07:59:52;;;;;;;11.73;10.50;;;43.60;39.40;;;;;;4980087;29;20479;-52
2021/06/19 08:02:25;;;;;;;8.97;8.37;;;43.80;39.10;;;;;;4979863;29;20455;-54
2021/06/19 08:04:52;;;;;;;9.80;8.90;;;44.00;37.90;;;;;;4979530;29;20431;-54
2021/06/19 08:07:18;;;;;;;10.67;9.97;;;44.20;37.20;;;;;;4979520;29;20490;-52
2021/06/19 08:09:45;;;;;;;12.60;9.70;;;44.20;37.50;;;;;;4979142;29;20443;-53
2021/06/19 08:12:15;;;;;;;10.73;9.50;;;44.20;37.40;;;;;;4980908;28;20466;-51
2021/06/19 08:14:44;;;;;;;10.60;9.70;;;44.30;37.80;;;;;;4981253;28;20428;-53
2021/06/19 08:17:16;;;;;;;13.27;9.80;;;44.30;37.30;;;;;;4980442;28;20432;-53
2021/06/19 08:19:45;;;;;;;10.17;9.27;;;44.30;37.70;;;;;;4980610;28;20455;-48
2021/06/19 08:22:12;;;;;;;10.33;9.63;;;44.40;37.40;;;;;;4979645;28;20444;-53
2021/06/19 08:24:39;;;;;;;10.00;9.00;;;44.40;37.30;;;;;;4978923;29;20435;-52
2021/06/19 08:27:07;;;;;;;11.07;9.90;;;44.50;36.30;;;;;;4979262;29;20431;-53
2021/06/19 08:29:37;;;;;;;11.30;9.80;;;44.70;36.20;;;;;;4979527;29;20514;-52
2021/06/19 08:32:04;;;;;;;9.83;9.03;;;44.70;36.00;;;;;;4979211;29;20423;-52
2021/06/19 08:34:31;;;;;;;11.20;10.30;;;44.30;36.40;;;;;;4978922;29;20479;-53
2021/06/19 08:37:00;;;;;;;10.00;9.30;;;44.30;36.30;;;;;;4979043;28;20455;-52
2021/06/19 08:39:27;;;;;;;10.87;9.90;;;44.40;36.60;;;;;;4979165;29;20435;-51
2021/06/19 08:41:56;;;;;;;12.03;10.93;;;44.30;36.20;;;;;;4979606;29;20431;-52
2021/06/19 08:44:26;;;;;;;9.77;9.17;;;44.20;36.50;;;;;;4979506;29;20446;-53
2021/06/19 08:46:54;;;;;;;12.50;11.50;;;44.30;35.60;;;;;;4978759;29;20479;-53
2021/06/19 08:49:21;;;;;;;8.87;8.27;;;44.40;35.90;;;;;;4979652;29;20439;-56
2021/06/19 08:51:47;;;;;;;9.93;8.67;;;44.20;35.60;;;;;;4979708;28;20446;-53
2021/06/19 08:54:16;;;;;;;10.03;9.23;;;43.90;36.70;;;;;;4983957;28;20431;-51
2021/06/19 08:56:45;;;;;;;10.50;9.70;;;43.70;36.50;;;;;;4998932;28;20430;-52
2021/06/19 08:59:12;;;;;;;10.53;9.67;;;43.60;36.70;;;;;;4999166;28;20479;-49
2021/06/19 09:01:42;;;;;;;9.60;8.80;;;43.60;36.90;;;;;;4987243;28;20506;-50
2021/06/19 09:33:15;;;;;;;8.73;7.80;;;45.20;34.10;;;;;;5526125;23;20571;-49
2021/06/19 11:31:20;;;;;;;9.00;8.23;;;39.60;37.90;;;;;;5839737;23;20495;-53
2021/06/19 11:33:50;;;;;;;9.33;8.50;;;39.40;37.80;;;;;;4966089;28;20841;-49
2021/06/19 11:36:30;;;;;;;9.37;8.77;;;39.20;38.00;;;;;;4971556;28;20491;-51
2021/06/19 11:39:03;;;;;;;9.60;9.00;;;38.90;38.70;;;;;;4972739;28;20455;-48
2021/06/19 11:41:32;;;;;;;9.10;8.40;;;38.70;38.90;;;;;;4963236;28;20982;-51
2021/06/19 11:43:59;;;;;;;12.43;9.30;;;38.40;39.20;;;;;;4962639;28;21230;-47
2021/06/19 11:46:27;;;;;;;10.87;8.70;;;38.30;39.20;;;;;;4960924;28;20463;-51
2021/06/19 11:48:55;;;;;;;9.73;8.93;;;38.10;39.60;;;;;;4956952;29;20937;-49
2021/06/19 11:51:24;;;;;;;11.87;9.10;;;38.10;39.90;;;;;;4959080;28;20451;-52
2021/06/19 11:53:52;;;;;;;10.30;9.50;;;37.90;39.80;;;;;;4956416;29;20463;-51
2021/06/19 11:56:21;;;;;;;10.23;9.33;;;37.70;40.20;;;;;;4956931;29;20842;-50
2021/06/19 11:58:50;;;;;;;10.20;9.40;;;37.60;40.20;;;;;;4947234;29;20452;-50
2021/06/19 12:01:18;;;;;;;10.67;9.77;;;37.60;40.80;;;;;;4957182;29;21014;-47
2021/06/19 12:03:47;;;;;;;9.20;8.50;;;37.50;40.10;;;;;;4957335;29;20460;-51
2021/06/19 12:06:14;;;;;;;10.50;9.60;;;37.50;40.80;;;;;;4957770;29;20464;-54
2021/06/19 12:08:41;;;;;;;9.30;8.57;;;37.40;41.30;;;;;;4957563;29;20452;-53
2021/06/19 12:11:08;;;;;;;9.00;8.20;;;37.40;41.30;;;;;;4958118;29;20526;-49
2021/06/19 12:13:38;;;;;;;14.23;9.33;;;37.20;40.60;;;;;;4957164;29;20451;-47
2021/06/19 12:16:07;;;;;;;9.07;8.27;;;37.20;40.90;;;;;;4957129;29;20471;-51
2021/06/19 12:18:34;;;;;;;9.57;8.67;;;37.30;41.20;;;;;;4956391;29;21021;-50
2021/06/19 12:21:04;;;;;;;9.43;8.83;;;37.20;40.50;;;;;;4956555;29;20816;-51
2021/06/19 12:23:36;;;;;;;9.30;8.40;;;37.20;40.80;;;;;;4956386;29;20462;-53
2021/06/19 12:26:06;;;;;;;10.33;9.43;;;37.40;41.30;;;;;;4956938;29;20467;-49
2021/06/19 12:28:43;;;;;;;9.43;8.47;;;37.70;41.10;;;;;;5174006;27;20311;-55
2021/06/19 12:31:11;;;;;;;9.50;8.57;;;37.90;39.30;;;;;;5174003;27;20438;-54
2021/06/19 12:33:37;;;;;;;11.50;10.70;;;38.10;40.30;;;;;;5174006;27;20449;-51
2021/06/19 12:36:08;;;;;;;11.60;10.70;;;38.30;40.10;;;;;;5173622;27;20442;-49
2021/06/19 12:38:36;;;;;;;15.60;11.23;;;38.40;40.30;;;;;;5174598;27;20483;-56
2021/06/19 12:41:06;;;;;;;11.30;10.50;;;38.50;40.00;;;;;;5173700;27;20434;-50
2021/06/19 12:43:32;;;;;;;11.50;10.70;;;38.50;40.10;;;;;;5173712;27;20483;-51
2021/06/19 12:46:00;;;;;;;12.43;11.43;;;38.50;39.70;;;;;;5173616;27;20475;-50
2021/06/19 12:48:29;;;;;;;12.57;11.47;;;38.60;40.20;;;;;;5173732;27;20469;-52
2021/06/19 12:50:59;;;;;;;12.53;10.57;;;38.70;39.90;;;;;;5173374;27;20493;-53
2021/06/19 12:53:27;;;;;;;10.00;9.20;;;38.60;39.70;;;;;;5173427;27;20572;-51
2021/06/19 12:56:03;;;;;;;10.37;9.57;;;38.50;39.90;;;;;;5173268;27;20448;-51
2021/06/19 12:58:36;;;;;;;11.87;10.70;;;38.40;40.00;;;;;;5173672;27;20448;-46
2021/06/19 13:01:15;;;;;;;18.77;10.40;;;38.30;40.40;;;;;;5173446;27;20457;-53
2021/06/19 13:03:48;;;;;;;10.97;9.97;;;38.20;41.10;;;;;;5173553;27;20759;-53
2021/06/19 13:06:31;;;;;;;10.47;9.43;;;38.40;41.10;;;;;;5173182;27;20781;-54
2021/06/19 13:09:00;;;;;;;10.90;9.80;;;38.50;40.70;;;;;;5173073;27;20926;-50
2021/06/19 13:11:30;;;;;;;11.07;10.27;;;38.50;40.90;;;;;;5173391;27;20434;-50
2021/06/19 13:13:58;;;;;;;11.93;10.70;;;38.60;41.10;;;;;;5173408;27;20834;-50
2021/06/19 13:16:32;;;;;;;11.93;10.37;;;38.60;41.00;;;;;;5173154;27;20436;-51
2021/06/19 13:19:02;;;;;;;11.37;10.30;;;38.50;40.30;;;;;;5173083;27;20524;-49
2021/06/19 13:21:30;;;;;;;11.03;10.13;;;38.40;40.50;;;;;;5173113;27;20445;-51
2021/06/19 13:23:57;;;;;;;11.23;10.33;;;38.20;40.20;;;;;;5173513;27;20470;-53
2021/06/19 13:26:26;;;;;;;12.43;11.30;;;38.10;40.90;;;;;;5172561;27;20825;-52
2021/06/19 13:29:02;;;;;;;11.67;10.67;;;37.80;41.30;;;;;;5172268;27;20473;-51
2021/06/19 13:31:35;;;;;;;10.63;9.73;;;37.60;41.80;;;;;;5172622;27;20757;-50
2021/06/19 13:34:04;;;;;;;11.40;10.50;;;37.40;42.00;;;;;;5172686;27;20498;-49
2021/06/19 13:36:38;;;;;;;13.73;12.63;;;37.00;42.70;;;;;;5172860;27;20438;-50
2021/06/19 13:39:08;;;;;;;11.43;10.63;;;36.70;43.30;;;;;;5164424;27;20529;-49
2021/06/19 13:41:38;;;;;;;12.20;11.10;;;36.50;43.50;;;;;;5158732;27;20883;-48
2021/06/19 13:44:06;;;;;;;16.60;15.10;;;36.30;43.70;;;;;;5158817;27;20423;-49
2021/06/19 13:46:35;;;;;;;16.47;14.97;;;36.20;44.30;;;;;;5158832;27;20443;-55
2021/06/19 13:49:02;;;;;;;14.23;13.00;;;36.00;44.80;;;;;;5158634;27;20430;-52
2021/06/19 13:51:29;;;;;;;15.20;13.87;;;35.90;45.20;;;;;;5158343;27;20450;-53
2021/06/19 13:53:56;;;;;;;15.63;14.07;;;35.90;45.40;;;;;;5158688;27;20471;-48
2021/06/19 13:56:23;;;;;;;13.40;12.30;;;36.00;45.90;;;;;;5158216;27;20442;-50
2021/06/19 13:58:50;;;;;;;13.90;12.53;;;36.10;45.80;;;;;;5158474;27;20450;-52
2021/06/19 14:01:17;;;;;;;12.57;11.50;;;36.30;45.30;;;;;;5158394;27;20458;-52
2021/06/19 14:03:46;;;;;;;12.70;11.70;;;36.40;45.50;;;;;;5158413;27;20499;-55
2021/06/19 14:06:14;;;;;;;12.53;10.90;;;36.50;44.20;;;;;;5158238;27;20434;-57
2021/06/19 14:08:43;;;;;;;11.87;10.93;;;36.50;44.60;;;;;;5158081;27;20488;-49
2021/06/19 14:11:12;;;;;;;11.40;10.40;;;36.60;44.60;;;;;;5158047;27;20979;-48
2021/06/19 14:13:38;;;;;;;12.03;10.97;;;36.80;44.10;;;;;;5158286;27;20439;-52
2021/06/19 14:16:05;;;;;;;11.93;10.73;;;36.80;43.90;;;;;;5158050;27;20476;-52
2021/06/19 14:18:32;;;;;;;12.40;11.30;;;36.80;43.80;;;;;;5158095;27;20450;-49
2021/06/19 14:21:02;;;;;;;11.23;10.23;;;36.90;43.20;;;;;;5158108;27;20442;-54
2021/06/19 14:23:29;;;;;;;11.73;10.50;;;37.00;43.00;;;;;;5158148;27;20857;-50
2021/06/19 14:25:55;;;;;;;12.43;11.33;;;37.00;43.10;;;;;;5158001;27;20446;-49
2021/06/19 14:28:22;;;;;;;11.93;10.93;;;37.10;43.10;;;;;;5157381;27;20494;-52
2021/06/19 14:30:49;;;;;;;11.30;10.30;;;37.10;43.60;;;;;;5158395;27;20449;-49
2021/06/19 14:33:16;;;;;;;12.33;11.20;;;37.20;43.40;;;;;;5157699;27;20455;-51
2021/06/19 14:35:43;;;;;;;12.20;11.00;;;37.10;43.50;;;;;;5157810;27;20434;-53
2021/06/19 14:38:14;;;;;;;10.90;10.10;;;37.00;42.90;;;;;;5157394;27;20438;-49
2021/06/19 14:40:41;;;;;;;15.57;11.93;;;36.80;43.10;;;;;;5157575;27;20614;-53
2021/06/19 14:43:08;;;;;;;12.20;11.03;;;36.80;43.20;;;;;;5157474;27;20426;-51
2021/06/19 14:45:35;;;;;;;13.10;11.67;;;36.80;42.90;;;;;;5157321;27;20489;-52
2021/06/19 14:48:01;;;;;;;13.87;12.67;;;36.80;43.40;;;;;;5157211;27;20814;-54
2021/06/19 14:50:28;;;;;;;30.37;26.90;;;37.00;43.50;;;;;;5156039;27;20447;-50
2021/06/19 14:52:54;;;;;;;13.37;10.77;;;37.10;43.70;;;;;;5158823;27;20495;-54
2021/06/19 14:55:23;;;;;;;13.53;12.10;;;37.20;42.70;;;;;;5157043;27;20438;-52
2021/06/19 14:57:49;;;;;;;11.43;10.43;;;37.20;43.30;;;;;;5157225;27;20451;-52
2021/06/19 15:00:17;;;;;;;10.93;9.77;;;37.30;43.20;;;;;;5157280;27;20450;-53